Time;durP1;ratioP1;P1;durP2;ratioP2;P2;SDS_P1;SDS_P2;PMS_P1;PMS_P2;Temp;Humidity;BMP_temperature;BMP_pressure;BME280_temperature;BME280_humidity;BME280_pressure;Samples;Min_cycle;Max_cycle;Signal;HPM_P1;HPM_P2
2021/10/29 00:02:05;;;;;;;11.65;7.37;;;;;;;;;;4382498;32;20065;-60
2021/10/29 00:04:32;;;;;;;11.90;7.32;;;;;;;;;;4382219;32;20101;-61
2021/10/29 00:06:59;;;;;;;10.98;7.30;;;;;;;;;;4370323;32;20158;-59
2021/10/29 00:09:25;;;;;;;10.80;7.45;;;;;;;;;;4383028;32;20096;-60
2021/10/29 00:11:52;;;;;;;11.88;7.57;;;;;;;;;;4382710;32;20073;-61
2021/10/29 00:14:19;;;;;;;13.62;7.72;;;;;;;;;;4382328;32;20152;-61
2021/10/29 00:16:45;;;;;;;11.00;7.70;;;;;;;;;;4394748;32;20600;-61
2021/10/29 00:19:12;;;;;;;10.73;7.03;;;;;;;;;;4382409;32;20069;-60
2021/10/29 00:21:39;;;;;;;13.20;7.87;;;;;;;;;;4369773;32;20093;-61
2021/10/29 00:24:05;;;;;;;11.40;7.45;;;;;;;;;;4382426;32;20603;-61
2021/10/29 00:26:32;;;;;;;12.95;7.93;;;;;;;;;;4395005;32;20111;-61
2021/10/29 00:28:59;;;;;;;13.65;7.50;;;;;;;;;;4395056;32;20514;-61
2021/10/29 00:31:25;;;;;;;12.10;7.62;;;;;;;;;;4394462;32;20081;-61
2021/10/29 00:33:52;;;;;;;13.18;8.15;;;;;;;;;;4381571;32;20106;-60
2021/10/29 00:36:19;;;;;;;10.82;7.32;;;;;;;;;;4382263;32;20157;-61
2021/10/29 00:38:45;;;;;;;9.82;7.25;;;;;;;;;;4408805;32;20066;-61
2021/10/29 00:41:12;;;;;;;12.10;7.47;;;;;;;;;;4381727;32;20507;-61
2021/10/29 00:43:38;;;;;;;12.20;7.70;;;;;;;;;;4382102;32;20093;-60
2021/10/29 00:46:05;;;;;;;15.98;8.32;;;;;;;;;;4382303;32;20531;-60
2021/10/29 00:48:33;;;;;;;12.43;7.45;;;;;;;;;;4357104;32;20499;-60
2021/10/29 00:51:00;;;;;;;13.02;8.35;;;;;;;;;;4370040;32;20084;-60
2021/10/29 00:53:27;;;;;;;11.98;7.50;;;;;;;;;;4394255;32;20169;-61
2021/10/29 00:55:55;;;;;;;10.57;6.95;;;;;;;;;;4369848;32;20167;-61
2021/10/29 00:58:21;;;;;;;11.90;7.40;;;;;;;;;;4395347;32;20081;-60
2021/10/29 01:00:48;;;;;;;11.48;7.85;;;;;;;;;;4381880;32;20171;-61
2021/10/29 01:03:15;;;;;;;12.73;8.27;;;;;;;;;;4356824;32;20515;-60
2021/10/29 01:05:42;;;;;;;11.88;7.45;;;;;;;;;;4381404;32;20153;-60
2021/10/29 01:08:10;;;;;;;13.07;7.25;;;;;;;;;;4369934;32;20077;-61
2021/10/29 01:10:37;;;;;;;12.45;7.20;;;;;;;;;;4369389;32;20157;-61
2021/10/29 01:13:06;;;;;;;14.48;7.65;;;;;;;;;;4357048;32;20097;-59
2021/10/29 01:15:32;;;;;;;11.60;7.40;;;;;;;;;;4369050;32;20531;-60
2021/10/29 01:17:59;;;;;;;10.45;6.78;;;;;;;;;;4394172;32;20158;-61
2021/10/29 01:20:26;;;;;;;10.15;7.32;;;;;;;;;;4369233;32;20514;-61
2021/10/29 01:22:53;;;;;;;10.10;7.25;;;;;;;;;;4369336;32;20224;-61
2021/10/29 01:25:21;;;;;;;13.00;7.68;;;;;;;;;;4369027;32;20097;-61
2021/10/29 01:27:47;;;;;;;12.32;7.85;;;;;;;;;;4393869;32;20319;-60
2021/10/29 01:30:14;;;;;;;10.88;7.28;;;;;;;;;;4381343;32;20121;-61
2021/10/29 01:32:41;;;;;;;12.10;7.07;;;;;;;;;;4356904;32;20085;-60
2021/10/29 01:35:09;;;;;;;11.75;7.47;;;;;;;;;;4369154;32;20156;-62
2021/10/29 01:37:39;;;;;;;10.45;7.15;;;;;;;;;;4368689;32;20496;-61
2021/10/29 01:40:13;;;;;;;10.18;7.47;;;;;;;;;;4393700;32;20084;-60
2021/10/29 01:42:40;;;;;;;11.12;7.28;;;;;;;;;;4368987;32;20173;-61
2021/10/29 01:45:07;;;;;;;12.63;8.45;;;;;;;;;;4356200;32;20058;-60
2021/10/29 01:47:34;;;;;;;11.18;7.35;;;;;;;;;;4381081;32;20492;-61
2021/10/29 01:50:01;;;;;;;9.88;7.18;;;;;;;;;;4368338;32;20073;-61
2021/10/29 01:52:28;;;;;;;11.73;7.55;;;;;;;;;;4368733;32;20062;-61
2021/10/29 01:54:55;;;;;;;12.82;8.65;;;;;;;;;;4369016;32;20173;-60
2021/10/29 01:57:22;;;;;;;12.65;8.65;;;;;;;;;;4368622;32;20096;-60
2021/10/29 01:59:49;;;;;;;12.05;8.50;;;;;;;;;;4393401;32;20076;-61
2021/10/29 02:02:15;;;;;;;13.50;8.80;;;;;;;;;;4381245;32;20560;-61
2021/10/29 02:04:42;;;;;;;13.25;9.15;;;;;;;;;;4380522;32;20082;-59
2021/10/29 02:07:09;;;;;;;12.00;7.80;;;;;;;;;;4407145;32;20080;-61
2021/10/29 02:09:35;;;;;;;11.20;8.10;;;;;;;;;;4368430;32;20168;-62
2021/10/29 02:12:02;;;;;;;12.57;9.55;;;;;;;;;;4368187;32;20456;-59
2021/10/29 02:14:29;;;;;;;13.32;8.57;;;;;;;;;;4380999;32;20077;-61
2021/10/29 02:16:56;;;;;;;15.07;9.77;;;;;;;;;;4367865;32;20081;-59
2021/10/29 02:19:23;;;;;;;13.93;9.02;;;;;;;;;;4381169;32;20520;-61
2021/10/29 02:21:49;;;;;;;13.07;8.70;;;;;;;;;;4393536;32;20077;-60
2021/10/29 02:24:16;;;;;;;12.27;8.32;;;;;;;;;;4368139;32;20096;-60
2021/10/29 02:26:43;;;;;;;13.45;8.35;;;;;;;;;;4368063;32;20085;-61
2021/10/29 02:29:10;;;;;;;12.40;8.25;;;;;;;;;;4392856;32;20085;-60
2021/10/29 02:31:39;;;;;;;11.80;8.23;;;;;;;;;;4368039;32;20081;-61
2021/10/29 02:34:06;;;;;;;11.30;8.00;;;;;;;;;;4393555;32;20192;-61
2021/10/29 02:36:33;;;;;;;10.90;7.70;;;;;;;;;;4380378;32;20081;-61
2021/10/29 02:39:00;;;;;;;11.63;8.30;;;;;;;;;;4367884;32;20080;-61
2021/10/29 02:41:27;;;;;;;10.90;7.70;;;;;;;;;;4392640;32;20077;-60
2021/10/29 02:43:53;;;;;;;10.82;7.57;;;;;;;;;;4380482;32;20081;-60
2021/10/29 02:46:20;;;;;;;15.25;8.13;;;;;;;;;;4367444;32;20066;-61
2021/10/29 02:48:47;;;;;;;11.10;8.18;;;;;;;;;;4367564;32;20092;-61
2021/10/29 02:51:14;;;;;;;12.93;8.68;;;;;;;;;;4380086;32;20085;-60
2021/10/29 02:53:40;;;;;;;13.68;9.00;;;;;;;;;;4380516;32;20103;-61
2021/10/29 02:56:08;;;;;;;13.80;8.77;;;;;;;;;;4379959;32;20599;-61
2021/10/29 02:58:34;;;;;;;12.07;8.30;;;;;;;;;;4380138;32;20137;-61
2021/10/29 03:01:01;;;;;;;13.90;8.98;;;;;;;;;;4355257;32;20061;-61
2021/10/29 03:03:29;;;;;;;13.62;8.15;;;;;;;;;;4355615;32;20200;-60
2021/10/29 03:05:56;;;;;;;13.30;8.45;;;;;;;;;;4376708;32;20107;-60
2021/10/29 03:08:23;;;;;;;11.60;8.23;;;;;;;;;;4377377;32;20062;-60
2021/10/29 03:10:50;;;;;;;13.18;8.27;;;;;;;;;;4377925;32;20088;-60
2021/10/29 03:13:17;;;;;;;13.23;9.02;;;;;;;;;;4377690;32;20177;-60
2021/10/29 03:15:44;;;;;;;16.37;9.48;;;;;;;;;;4352666;32;20085;-60
2021/10/29 03:18:10;;;;;;;18.05;10.40;;;;;;;;;;4391973;32;20087;-61
2021/10/29 03:20:37;;;;;;;17.48;10.43;;;;;;;;;;4349995;32;20082;-60
2021/10/29 03:23:04;;;;;;;11.95;7.55;;;;;;;;;;4375140;32;20137;-61
2021/10/29 03:25:31;;;;;;;14.38;7.97;;;;;;;;;;4374911;32;20082;-61
2021/10/29 03:27:57;;;;;;;12.98;8.85;;;;;;;;;;4353258;32;20090;-59
2021/10/29 03:30:26;;;;;;;13.62;8.45;;;;;;;;;;4365473;32;20078;-59
2021/10/29 03:32:54;;;;;;;14.45;8.07;;;;;;;;;;4365455;32;20081;-61
2021/10/29 03:35:20;;;;;;;12.85;8.65;;;;;;;;;;4365865;32;20198;-61
2021/10/29 03:38:02;;;;;;;12.13;8.05;;;;;;;;;;4355884;32;20173;-60
2021/10/29 03:43:13;;;;;;;12.50;8.97;;;;;;;;;;4377753;32;20082;-62
2021/10/29 03:48:24;;;;;;;11.43;8.15;;;;;;;;;;3857607;37;20491;-61
2021/10/29 03:56:24;;;;;;;13.60;8.63;;;;;;;;;;4405817;32;20092;-61
2021/10/29 03:58:52;;;;;;;12.18;8.77;;;;;;;;;;4418697;32;20085;-61
2021/10/29 04:01:18;;;;;;;12.45;8.40;;;;;;;;;;4393527;32;20088;-61
2021/10/29 04:03:45;;;;;;;14.87;8.48;;;;;;;;;;4405630;32;20057;-61
2021/10/29 04:06:12;;;;;;;12.00;8.30;;;;;;;;;;4405774;32;20076;-61
2021/10/29 04:08:39;;;;;;;14.75;8.32;;;;;;;;;;4418594;32;20065;-59
2021/10/29 04:11:06;;;;;;;16.35;9.05;;;;;;;;;;4405658;32;20077;-61
2021/10/29 04:13:34;;;;;;;12.30;7.80;;;;;;;;;;4392800;32;20150;-60
2021/10/29 04:16:02;;;;;;;14.20;8.27;;;;;;;;;;4418587;32;20068;-60
2021/10/29 04:18:29;;;;;;;11.20;7.72;;;;;;;;;;4393198;32;20074;-61
2021/10/29 04:20:56;;;;;;;14.00;8.93;;;;;;;;;;4392783;32;20136;-61
2021/10/29 04:23:22;;;;;;;12.50;8.50;;;;;;;;;;4380454;32;20085;-61
2021/10/29 04:25:49;;;;;;;12.02;7.62;;;;;;;;;;4419551;32;20072;-60
2021/10/29 04:28:16;;;;;;;12.63;7.37;;;;;;;;;;4392733;32;20065;-61
2021/10/29 04:30:43;;;;;;;16.70;9.23;;;;;;;;;;4402948;32;20091;-61
2021/10/29 04:33:11;;;;;;;14.05;8.95;;;;;;;;;;4402776;32;20134;-60
2021/10/29 04:35:46;;;;;;;15.25;9.18;;;;;;;;;;4377609;32;20069;-61
2021/10/29 04:38:13;;;;;;;15.25;9.30;;;;;;;;;;4378917;32;20093;-61
2021/10/29 04:40:40;;;;;;;14.32;8.07;;;;;;;;;;4390534;32;20074;-59
2021/10/29 04:43:08;;;;;;;16.75;9.02;;;;;;;;;;4364815;32;20101;-61
2021/10/29 04:45:35;;;;;;;14.45;8.85;;;;;;;;;;4377878;32;20074;-61
2021/10/29 04:48:03;;;;;;;16.25;8.82;;;;;;;;;;4377557;32;20070;-62
2021/10/29 04:50:30;;;;;;;15.43;9.60;;;;;;;;;;4377881;32;20508;-60
2021/10/29 04:52:58;;;;;;;14.30;8.38;;;;;;;;;;4390142;32;20080;-61
2021/10/29 04:55:25;;;;;;;15.00;8.45;;;;;;;;;;4390217;32;20096;-61
2021/10/29 04:57:51;;;;;;;14.07;7.62;;;;;;;;;;4387433;32;20162;-61
2021/10/29 05:00:19;;;;;;;11.45;7.95;;;;;;;;;;4367539;32;20086;-61
2021/10/29 05:02:46;;;;;;;10.68;8.10;;;;;;;;;;4380317;32;20104;-61
2021/10/29 05:05:13;;;;;;;8.80;7.03;;;;;;;;;;4392078;32;20526;-61
2021/10/29 05:07:40;;;;;;;9.82;6.30;;;;;;;;;;4379441;32;20500;-60
2021/10/29 05:10:07;;;;;;;11.65;6.97;;;;;;;;;;4367640;32;20093;-61
2021/10/29 05:12:34;;;;;;;10.05;6.53;;;;;;;;;;4391995;32;20101;-62
2021/10/29 05:15:01;;;;;;;9.77;6.45;;;;;;;;;;4379626;32;20571;-62
2021/10/29 05:17:27;;;;;;;8.00;5.45;;;;;;;;;;4380316;32;20109;-62
2021/10/29 05:19:54;;;;;;;7.55;4.70;;;;;;;;;;4367378;32;20078;-61
2021/10/29 05:22:21;;;;;;;6.57;4.40;;;;;;;;;;4392240;32;20145;-60
2021/10/29 05:24:48;;;;;;;7.43;3.87;;;;;;;;;;4380390;32;20511;-61
2021/10/29 05:27:15;;;;;;;6.50;4.10;;;;;;;;;;4367002;32;20153;-61
2021/10/29 05:29:41;;;;;;;5.97;4.15;;;;;;;;;;4379233;32;20185;-61
2021/10/29 05:32:08;;;;;;;9.02;3.92;;;;;;;;;;4354813;32;20161;-61
2021/10/29 05:34:35;;;;;;;6.53;3.67;;;;;;;;;;4393464;32;20149;-61
2021/10/29 05:37:01;;;;;;;6.55;3.65;;;;;;;;;;4367436;32;20093;-61
2021/10/29 05:39:31;;;;;;;5.35;2.85;;;;;;;;;;4391479;32;20170;-61
2021/10/29 05:41:59;;;;;;;4.82;2.42;;;;;;;;;;4367240;32;20153;-61
2021/10/29 05:44:26;;;;;;;4.35;2.28;;;;;;;;;;4354862;32;20105;-60
2021/10/29 05:46:53;;;;;;;3.08;1.98;;;;;;;;;;4379246;32;20101;-60
2021/10/29 05:49:20;;;;;;;2.85;2.17;;;;;;;;;;4367157;32;20066;-61
2021/10/29 05:51:48;;;;;;;5.35;2.37;;;;;;;;;;4366668;32;20074;-60
2021/10/29 05:56:46;;;;;;;3.15;1.60;;;;;;;;;;4391222;32;20177;-61
2021/10/29 05:59:12;;;;;;;3.60;2.10;;;;;;;;;;4366875;32;20077;-61
2021/10/29 06:01:42;;;;;;;4.35;2.30;;;;;;;;;;4379177;32;20066;-60
2021/10/29 06:04:09;;;;;;;2.87;2.00;;;;;;;;;;4404183;32;20074;-61
2021/10/29 06:06:36;;;;;;;3.92;2.20;;;;;;;;;;4365956;32;20078;-61
2021/10/29 06:09:03;;;;;;;3.20;1.90;;;;;;;;;;4391043;32;20239;-60
2021/10/29 06:11:29;;;;;;;4.57;2.37;;;;;;;;;;4379216;32;20152;-60
2021/10/29 06:13:56;;;;;;;4.72;2.90;;;;;;;;;;4392453;32;20076;-61
2021/10/29 06:16:23;;;;;;;5.62;2.95;;;;;;;;;;4391301;32;20099;-60
2021/10/29 06:18:50;;;;;;;4.15;2.30;;;;;;;;;;4379365;32;20094;-61
2021/10/29 06:21:21;;;;;;;3.37;1.85;;;;;;;;;;4369735;32;20082;-61
2021/10/29 06:23:58;;;;;;;3.22;2.08;;;;;;;;;;4378999;32;20154;-60
2021/10/29 06:26:27;;;;;;;2.47;1.73;;;;;;;;;;4380422;32;20096;-60
2021/10/29 06:28:54;;;;;;;3.28;2.28;;;;;;;;;;4379047;32;20462;-60
2021/10/29 06:31:20;;;;;;;2.22;1.80;;;;;;;;;;4378524;32;20074;-61
2021/10/29 06:33:47;;;;;;;3.22;1.83;;;;;;;;;;4377781;32;20110;-62
2021/10/29 06:36:14;;;;;;;2.50;1.75;;;;;;;;;;4378633;32;20102;-62
2021/10/29 06:38:41;;;;;;;2.35;1.75;;;;;;;;;;4365846;32;20243;-61
2021/10/29 06:41:08;;;;;;;2.85;1.73;;;;;;;;;;4377928;32;20073;-61
2021/10/29 06:43:52;;;;;;;5.03;2.53;;;;;;;;;;4377939;32;20076;-61
2021/10/29 06:49:09;;;;;;;2.20;1.55;;;;;;;;;;4390632;32;20174;-61
2021/10/29 07:00:04;;;;;;;1.10;1.00;;;;;;;;;;4379909;32;20455;-60
2021/10/29 07:05:19;;;;;;;2.03;1.70;;;;;;;;;;4365046;32;20544;-60
2021/10/29 07:40:57;;;;;;;3.65;1.95;;;;;;;;;;4379300;32;20077;-61
2021/10/29 07:43:36;;;;;;;1.80;1.50;;;;;;;;;;4390119;32;20082;-60
2021/10/29 07:46:04;;;;;;;1.62;1.52;;;;;;;;;;4367386;32;20078;-60
2021/10/29 07:48:33;;;;;;;2.15;1.52;;;;;;;;;;4377811;32;20100;-61
2021/10/29 07:51:02;;;;;;;2.30;1.48;;;;;;;;;;4389761;32;20500;-61
2021/10/29 07:53:29;;;;;;;3.55;2.12;;;;;;;;;;4387081;32;20097;-61
2021/10/29 07:56:05;;;;;;;2.15;1.67;;;;;;;;;;4388117;32;20125;-61
2021/10/29 07:58:32;;;;;;;1.53;1.20;;;;;;;;;;4360333;32;20129;-61
2021/10/29 08:01:00;;;;;;;1.30;1.17;;;;;;;;;;4366251;32;20066;-60
2021/10/29 08:03:27;;;;;;;2.62;1.55;;;;;;;;;;4362276;32;20121;-62
2021/10/29 08:05:54;;;;;;;2.53;1.42;;;;;;;;;;4372214;32;20084;-62
2021/10/29 08:08:21;;;;;;;4.60;2.22;;;;;;;;;;4364519;32;20078;-60
2021/10/29 08:10:48;;;;;;;2.37;1.92;;;;;;;;;;4356149;32;20462;-62
2021/10/29 08:13:15;;;;;;;2.85;1.60;;;;;;;;;;4360014;32;20086;-63
2021/10/29 08:15:42;;;;;;;1.92;1.50;;;;;;;;;;4364578;32;20078;-61
2021/10/29 08:18:09;;;;;;;3.12;1.70;;;;;;;;;;4383054;32;20093;-61
2021/10/29 08:20:36;;;;;;;2.80;1.42;;;;;;;;;;4361451;32;20082;-60
2021/10/29 08:23:04;;;;;;;2.50;1.30;;;;;;;;;;4361780;32;20058;-61
2021/10/29 08:25:31;;;;;;;1.98;1.33;;;;;;;;;;4385218;32;20471;-61
2021/10/29 08:27:58;;;;;;;1.83;1.50;;;;;;;;;;4363811;32;20110;-61
2021/10/29 08:30:26;;;;;;;2.28;1.40;;;;;;;;;;4362858;32;20233;-60
2021/10/29 08:32:53;;;;;;;1.52;1.40;;;;;;;;;;4356062;32;20066;-59
2021/10/29 08:35:20;;;;;;;2.10;1.60;;;;;;;;;;4365935;32;20054;-61
2021/10/29 08:37:49;;;;;;;2.65;1.58;;;;;;;;;;4373955;32;20065;-60
2021/10/29 08:40:16;;;;;;;2.72;1.77;;;;;;;;;;4388857;32;20504;-61
2021/10/29 08:42:43;;;;;;;3.25;1.60;;;;;;;;;;4365343;32;20487;-58
2021/10/29 08:45:11;;;;;;;2.40;1.30;;;;;;;;;;4380991;32;20145;-61
2021/10/29 08:47:40;;;;;;;1.30;1.20;;;;;;;;;;4360095;32;20158;-61
2021/10/29 08:50:08;;;;;;;3.40;1.48;;;;;;;;;;4358759;32;20094;-62
2021/10/29 08:52:35;;;;;;;2.35;1.50;;;;;;;;;;4386188;32;20093;-61
2021/10/29 08:55:07;;;;;;;1.67;1.30;;;;;;;;;;4372275;32;20075;-62
2021/10/29 08:57:34;;;;;;;1.50;1.27;;;;;;;;;;4366179;32;20113;-61
2021/10/29 09:00:01;;;;;;;2.70;1.30;;;;;;;;;;4373477;32;20066;-64
2021/10/29 09:02:33;;;;;;;1.42;1.33;;;;;;;;;;4370740;32;20209;-63
2021/10/29 09:05:18;;;;;;;2.92;1.37;;;;;;;;;;4379752;32;20096;-61
2021/10/29 09:08:06;;;;;;;3.78;1.70;;;;;;;;;;4387120;32;20077;-62
2021/10/29 09:10:56;;;;;;;1.45;1.35;;;;;;;;;;4360853;32;20063;-62
2021/10/29 09:33:01;;;;;;;5.15;1.73;;;;;;;;;;4388718;32;20078;-63
2021/10/29 09:35:29;;;;;;;2.15;1.02;;;;;;;;;;4377992;32;20448;-61
2021/10/29 09:38:02;;;;;;;2.22;1.40;;;;;;;;;;4366696;32;20142;-62
2021/10/29 09:40:31;;;;;;;3.20;2.10;;;;;;;;;;4365919;32;20070;-63
2021/10/29 09:43:14;;;;;;;2.65;1.85;;;;;;;;;;4377406;32;20065;-62
2021/10/29 09:45:57;;;;;;;5.05;2.03;;;;;;;;;;4377383;32;20073;-64
2021/10/29 09:48:41;;;;;;;2.55;1.85;;;;;;;;;;4371074;32;20720;-63
2021/10/29 09:51:14;;;;;;;2.05;1.40;;;;;;;;;;4379109;32;20138;-62
2021/10/29 09:56:44;;;;;;;2.70;1.52;;;;;;;;;;4380169;32;20521;-61
2021/10/29 09:59:09;;;;;;;3.62;1.95;;;;;;;;;;4377576;32;20085;-61
2021/10/29 10:01:35;;;;;;;2.83;1.65;;;;;;;;;;4361623;32;20520;-61
2021/10/29 10:04:03;;;;;;;2.67;1.80;;;;;;;;;;4380938;32;20173;-63
2021/10/29 10:06:34;;;;;;;3.05;1.87;;;;;;;;;;4377108;32;20074;-60
2021/10/29 10:09:03;;;;;;;2.50;2.08;;;;;;;;;;4378594;32;20104;-62
2021/10/29 10:11:30;;;;;;;2.83;1.90;;;;;;;;;;4346753;32;20150;-62
2021/10/29 10:13:57;;;;;;;2.97;1.67;;;;;;;;;;4376737;32;20527;-61
2021/10/29 10:16:26;;;;;;;2.47;1.80;;;;;;;;;;4374084;32;20129;-63
2021/10/29 10:18:52;;;;;;;3.53;2.03;;;;;;;;;;4376712;32;20077;-63
2021/10/29 10:21:21;;;;;;;2.92;1.70;;;;;;;;;;4365176;32;20535;-63
2021/10/29 10:23:53;;;;;;;2.83;1.67;;;;;;;;;;4371299;32;20066;-62
2021/10/29 10:43:24;;;;;;;2.72;1.90;;;;;;;;;;4390246;32;20141;-59
2021/10/29 10:46:07;;;;;;;3.33;1.98;;;;;;;;;;4390392;32;20081;-60
2021/10/29 10:49:05;;;;;;;2.33;1.30;;;;;;;;;;4390160;32;20111;-61
2021/10/29 10:54:20;;;;;;;0.98;0.90;;;;;;;;;;4390804;32;20467;-60
2021/10/29 11:11:05;;;;;;;2.00;1.15;;;;;;;;;;4384907;32;20074;-59
2021/10/29 11:13:45;;;;;;;2.35;1.45;;;;;;;;;;4377483;32;20124;-61
2021/10/29 11:16:17;;;;;;;2.70;1.67;;;;;;;;;;4377641;32;20073;-62
2021/10/29 11:19:11;;;;;;;2.92;1.02;;;;;;;;;;4369829;32;20070;-65
2021/10/29 11:21:57;;;;;;;1.77;0.80;;;;;;;;;;4380943;32;20063;-62
2021/10/29 11:24:37;;;;;;;;;;;;;;;;;;4386557;32;20097;-60
2021/10/29 11:27:05;;;;;;;1.00;0.90;;;;;;;;;;4372444;32;20000;-62
2021/10/29 11:29:44;;;;;;;6.87;1.50;;;;;;;;;;4381414;32;20069;-61
2021/10/29 11:32:10;;;;;;;3.45;1.65;;;;;;;;;;4375514;32;20507;-62
2021/10/29 11:34:37;;;;;;;1.67;1.40;;;;;;;;;;4371113;32;20070;-64
2021/10/29 11:37:04;;;;;;;1.33;1.08;;;;;;;;;;4373859;32;20094;-61
2021/10/29 11:39:31;;;;;;;5.60;1.33;;;;;;;;;;4358620;32;20504;-59
2021/10/29 11:41:58;;;;;;;1.10;1.00;;;;;;;;;;4374508;32;20120;-59
2021/10/29 11:44:25;;;;;;;3.03;1.40;;;;;;;;;;4358457;32;20105;-61
2021/10/29 11:46:54;;;;;;;1.42;1.30;;;;;;;;;;4374529;32;20101;-60
2021/10/29 11:49:24;;;;;;;3.05;1.62;;;;;;;;;;4378014;32;20572;-60
2021/10/29 11:51:55;;;;;;;3.22;1.60;;;;;;;;;;4370327;32;20640;-59
2021/10/29 11:54:27;;;;;;;1.95;1.48;;;;;;;;;;4371518;32;20543;-60
2021/10/29 12:07:42;;;;;;;1.80;1.58;;;;;;;;;;4381249;32;20097;-63
2021/10/29 12:10:19;;;;;;;3.28;1.90;;;;;;;;;;4363572;32;20078;-62
2021/10/29 12:12:46;;;;;;;3.87;1.80;;;;;;;;;;4375216;32;20544;-61
2021/10/29 12:15:16;;;;;;;1.92;1.40;;;;;;;;;;4381517;32;20094;-63
2021/10/29 12:17:52;;;;;;;5.00;2.50;;;;;;;;;;4364872;32;20318;-66
2021/10/29 12:20:22;;;;;;;4.10;2.60;;;;;;;;;;4383917;32;20106;-62
2021/10/29 12:22:53;;;;;;;1.85;1.70;;;;;;;;;;4396910;32;20066;-60
2021/10/29 12:25:31;;;;;;;2.35;1.80;;;;;;;;;;4370565;32;20424;-61
2021/10/29 12:28:17;;;;;;;1.90;1.62;;;;;;;;;;4376781;32;20094;-62
2021/10/29 13:03:44;;;;;;;;;;;;;;;;;;4388642;32;20145;-62
2021/10/29 13:06:15;;;;;;;2.70;2.00;;;;;;;;;;4384440;32;20005;-62
2021/10/29 13:08:43;;;;;;;3.10;2.00;;;;;;;;;;4367102;32;20578;-62
2021/10/29 13:11:13;;;;;;;3.40;1.85;;;;;;;;;;4385252;32;20548;-65
2021/10/29 13:13:44;;;;;;;2.03;1.65;;;;;;;;;;4353351;32;20157;-62
2021/10/29 13:16:14;;;;;;;2.28;1.87;;;;;;;;;;4371264;32;20191;-63
2021/10/29 13:18:58;;;;;;;3.40;1.77;;;;;;;;;;4375004;32;20652;-63
2021/10/29 13:35:36;;;;;;;3.20;2.30;;;;;;;;;;4363517;32;20161;-63
2021/10/29 13:38:40;;;;;;;3.58;2.03;;;;;;;;;;4361933;32;20473;-61
2021/10/29 13:54:54;;;;;;;3.12;2.00;;;;;;;;;;4365432;32;20081;-61
2021/10/29 14:02:55;;;;;;;3.53;2.35;;;;;;;;;;4376510;32;20507;-62
2021/10/29 14:24:33;;;;;;;2.78;1.87;;;;;;;;;;4375670;32;20471;-63
2021/10/29 14:30:02;;;;;;;2.30;1.92;;;;;;;;;;4376101;32;20631;-62
2021/10/29 14:34:58;;;;;;;3.12;1.92;;;;;;;;;;4362975;32;20067;-60
2021/10/29 14:40:15;;;;;;;2.78;1.92;;;;;;;;;;4364666;32;20491;-63
2021/10/29 14:42:56;;;;;;;3.28;2.10;;;;;;;;;;4375926;32;20085;-62
2021/10/29 15:28:36;;;;;;;2.42;1.92;;;;;;;;;;4374991;32;20468;-61
2021/10/29 15:41:09;;;;;;;2.85;2.15;;;;;;;;;;4375426;32;20449;-61
2021/10/29 15:41:41;;;;;;;3.08;2.28;;;;;;;;;;4376562;32;20081;-62
2021/10/29 15:44:14;;;;;;;3.03;2.20;;;;;;;;;;4374984;32;20082;-63
2021/10/29 15:51:42;;;;;;;4.18;2.35;;;;;;;;;;4374888;32;20085;-61
2021/10/29 15:54:11;;;;;;;3.67;2.10;;;;;;;;;;4375170;32;20165;-62
2021/10/29 15:56:48;;;;;;;3.12;2.10;;;;;;;;;;4374835;32;20528;-63
2021/10/29 16:18:04;;;;;;;5.80;2.83;;;;;;;;;;4364653;32;20081;-62
2021/10/29 16:20:31;;;;;;;4.82;2.75;;;;;;;;;;4367762;32;20090;-62
2021/10/29 16:23:02;;;;;;;5.12;3.22;;;;;;;;;;4380625;32;20456;-62
2021/10/29 16:27:58;;;;;;;6.90;3.03;;;;;;;;;;4362341;32;20467;-62
2021/10/29 16:30:27;;;;;;;5.47;3.35;;;;;;;;;;4375769;32;20075;-62
2021/10/29 16:35:34;;;;;;;5.68;2.62;;;;;;;;;;4363027;32;20074;-62
2021/10/29 16:38:03;;;;;;;5.07;2.30;;;;;;;;;;4362133;32;20097;-62
2021/10/29 16:40:29;;;;;;;5.18;2.47;;;;;;;;;;4362202;32;20142;-62
2021/10/29 16:42:56;;;;;;;2.90;2.42;;;;;;;;;;4362013;32;20098;-63
2021/10/29 16:45:23;;;;;;;4.40;2.50;;;;;;;;;;4375050;32;20082;-64
2021/10/29 16:47:50;;;;;;;4.00;2.30;;;;;;;;;;4373971;32;20105;-63
2021/10/29 16:50:17;;;;;;;4.53;2.58;;;;;;;;;;4375818;32;20078;-62
2021/10/29 16:52:44;;;;;;;3.53;2.60;;;;;;;;;;4361867;32;20081;-63
2021/10/29 16:55:11;;;;;;;3.37;2.20;;;;;;;;;;4377118;32;20516;-63
2021/10/29 16:57:38;;;;;;;3.78;2.12;;;;;;;;;;4364687;32;20600;-62
2021/10/29 17:00:06;;;;;;;4.93;3.00;;;;;;;;;;4376933;32;20078;-63
2021/10/29 17:02:32;;;;;;;4.65;2.80;;;;;;;;;;4365008;32;20070;-63
2021/10/29 17:04:59;;;;;;;3.15;2.30;;;;;;;;;;4378760;32;20492;-63
2021/10/29 17:07:25;;;;;;;4.85;2.60;;;;;;;;;;4377058;32;20081;-61
2021/10/29 17:09:53;;;;;;;4.40;2.53;;;;;;;;;;4377211;32;20225;-62
2021/10/29 17:12:40;;;;;;;5.37;2.70;;;;;;;;;;3810985;37;20063;-63
2021/10/29 17:15:08;;;;;;;6.62;3.08;;;;;;;;;;4363584;32;20181;-63
2021/10/29 17:17:34;;;;;;;6.97;3.20;;;;;;;;;;4375757;32;20111;-63
2021/10/29 17:20:02;;;;;;;4.47;3.12;;;;;;;;;;4363220;32;20078;-62
2021/10/29 17:22:30;;;;;;;6.20;3.40;;;;;;;;;;4375726;32;20460;-63
2021/10/29 17:24:57;;;;;;;5.53;3.10;;;;;;;;;;4363103;32;20078;-62
2021/10/29 17:27:23;;;;;;;7.25;3.33;;;;;;;;;;4389125;32;20153;-63
2021/10/29 17:29:50;;;;;;;4.75;2.90;;;;;;;;;;4389431;32;20074;-62
2021/10/29 17:32:16;;;;;;;4.62;3.33;;;;;;;;;;4375722;32;20097;-63
2021/10/29 17:34:44;;;;;;;9.40;3.55;;;;;;;;;;4375622;32;20073;-62
2021/10/29 17:37:12;;;;;;;6.95;3.47;;;;;;;;;;4363434;32;20447;-63
2021/10/29 17:39:38;;;;;;;5.95;3.60;;;;;;;;;;4363332;32;20518;-63
2021/10/29 17:42:07;;;;;;;5.90;3.45;;;;;;;;;;4350463;32;20520;-62
2021/10/29 17:44:34;;;;;;;7.12;3.22;;;;;;;;;;4375274;32;20089;-63
2021/10/29 17:47:05;;;;;;;4.75;3.08;;;;;;;;;;4374766;32;20459;-63
2021/10/29 17:49:32;;;;;;;4.07;3.17;;;;;;;;;;4362965;32;20100;-63
2021/10/29 17:52:02;;;;;;;4.57;3.35;;;;;;;;;;4350371;32;20141;-63
2021/10/29 17:54:36;;;;;;;7.37;3.10;;;;;;;;;;4387569;32;20171;-63
2021/10/29 17:57:07;;;;;;;5.85;3.05;;;;;;;;;;4363117;32;20074;-61
2021/10/29 17:59:37;;;;;;;6.00;2.95;;;;;;;;;;4363026;32;20074;-63
2021/10/29 18:02:12;;;;;;;4.87;3.03;;;;;;;;;;4363694;32;20058;-61
2021/10/29 18:04:39;;;;;;;3.67;2.80;;;;;;;;;;4363499;32;20067;-62
2021/10/29 18:07:06;;;;;;;5.43;3.10;;;;;;;;;;4362627;32;20444;-62
2021/10/29 18:09:38;;;;;;;4.97;2.87;;;;;;;;;;4374882;32;20148;-61
2021/10/29 18:12:09;;;;;;;4.53;3.00;;;;;;;;;;4374825;32;20508;-63
2021/10/29 18:14:35;;;;;;;4.32;2.87;;;;;;;;;;4375478;32;20092;-62
2021/10/29 18:17:03;;;;;;;4.93;3.40;;;;;;;;;;4363603;32;20511;-62
2021/10/29 18:19:29;;;;;;;4.78;3.10;;;;;;;;;;4367182;32;20086;-62
2021/10/29 18:21:56;;;;;;;4.40;3.00;;;;;;;;;;4376651;32;20142;-62
2021/10/29 18:24:23;;;;;;;4.50;3.10;;;;;;;;;;4378917;32;20066;-63
2021/10/29 18:26:50;;;;;;;5.03;2.95;;;;;;;;;;4353141;32;20069;-63
2021/10/29 18:29:17;;;;;;;5.00;3.08;;;;;;;;;;4354234;32;20074;-62
2021/10/29 18:31:44;;;;;;;5.82;3.20;;;;;;;;;;4378418;32;20167;-63
2021/10/29 18:34:11;;;;;;;3.35;2.70;;;;;;;;;;4352538;32;20073;-63
2021/10/29 18:36:37;;;;;;;6.37;2.90;;;;;;;;;;4352325;32;20080;-64
2021/10/29 18:39:05;;;;;;;4.00;2.90;;;;;;;;;;4352254;32;20181;-63
2021/10/29 18:41:32;;;;;;;5.03;2.62;;;;;;;;;;4364846;32;20568;-63
2021/10/29 18:44:00;;;;;;;5.40;2.83;;;;;;;;;;4364791;32;20492;-62
2021/10/29 18:46:26;;;;;;;3.80;2.60;;;;;;;;;;4365231;32;20105;-62
2021/10/29 18:48:53;;;;;;;3.92;2.78;;;;;;;;;;4353829;32;20074;-63
2021/10/29 18:51:20;;;;;;;4.37;2.80;;;;;;;;;;4361711;32;20164;-62
2021/10/29 18:53:46;;;;;;;3.37;2.70;;;;;;;;;;4382076;32;20073;-63
2021/10/29 18:56:13;;;;;;;5.60;2.85;;;;;;;;;;4340642;32;20243;-63
2021/10/29 18:58:40;;;;;;;4.22;2.92;;;;;;;;;;4377239;32;20082;-60
2021/10/29 19:01:07;;;;;;;4.85;3.05;;;;;;;;;;4364689;32;20073;-63
2021/10/29 19:03:34;;;;;;;4.10;3.05;;;;;;;;;;4352276;32;20187;-62
2021/10/29 19:06:02;;;;;;;5.57;3.03;;;;;;;;;;4339268;32;20173;-63
2021/10/29 19:08:29;;;;;;;4.30;2.47;;;;;;;;;;4376334;32;20078;-62
2021/10/29 19:10:55;;;;;;;5.20;2.87;;;;;;;;;;4363765;32;20093;-63
2021/10/29 19:13:22;;;;;;;3.95;2.50;;;;;;;;;;4351652;32;20071;-62
2021/10/29 19:15:49;;;;;;;3.50;2.70;;;;;;;;;;4351776;32;20087;-62
2021/10/29 19:18:16;;;;;;;3.85;2.78;;;;;;;;;;4339310;32;20101;-62
2021/10/29 19:20:43;;;;;;;4.60;2.78;;;;;;;;;;4351944;32;20090;-63
2021/10/29 19:23:09;;;;;;;3.72;2.60;;;;;;;;;;4351016;32;20137;-62
2021/10/29 19:25:36;;;;;;;4.22;2.70;;;;;;;;;;4377517;32;20072;-63
2021/10/29 19:28:03;;;;;;;4.00;2.65;;;;;;;;;;4376143;32;20457;-62
2021/10/29 19:30:30;;;;;;;3.58;2.70;;;;;;;;;;4363722;32;20519;-63
2021/10/29 19:32:56;;;;;;;4.80;2.70;;;;;;;;;;4351113;32;20078;-63
2021/10/29 19:35:26;;;;;;;3.60;2.70;;;;;;;;;;4362619;32;20164;-63
2021/10/29 19:37:55;;;;;;;6.00;2.65;;;;;;;;;;4363804;32;20112;-63
2021/10/29 19:42:57;;;;;;;4.15;2.70;;;;;;;;;;4364527;32;20090;-62
2021/10/29 19:45:24;;;;;;;3.72;2.58;;;;;;;;;;4351514;32;20452;-62
2021/10/29 19:47:51;;;;;;;4.60;2.62;;;;;;;;;;4351012;32;20093;-62
2021/10/29 19:50:18;;;;;;;3.80;2.47;;;;;;;;;;4363563;32;20097;-62
2021/10/29 19:52:44;;;;;;;3.83;2.92;;;;;;;;;;4351032;32;20528;-62